createdAt,value
2023-01-13T00:01:10.841Z,100412.13
2023-01-13T00:03:37.489Z,100410.72
2023-01-13T00:06:04.245Z,100412.34
2023-01-13T00:08:30.935Z,100406.94
2023-01-13T00:10:57.306Z,100406.25
2023-01-13T00:13:23.965Z,100398.28
2023-01-13T00:15:57.973Z,100388.78
2023-01-13T00:18:25.041Z,100382.44
2023-01-13T00:21:16.057Z,100386.97
2023-01-13T00:23:43.344Z,100380.56
2023-01-13T00:26:13.207Z,100391.09
2023-01-13T00:28:39.682Z,100383.84
2023-01-13T00:31:09.072Z,100388.13
2023-01-13T00:33:36.295Z,100407.31
2023-01-13T00:36:04.282Z,100410.00
2023-01-13T00:38:32.349Z,100418.69
2023-01-13T00:41:00.257Z,100412.28
2023-01-13T00:43:27.580Z,100411.16
2023-01-13T00:45:54.980Z,100399.25
2023-01-13T00:48:23.341Z,100397.53
2023-01-13T00:50:58.293Z,100392.72
2023-01-13T00:53:25.631Z,100384.59
2023-01-13T00:56:13.906Z,100380.34
2023-01-13T00:58:40.954Z,100379.34
2023-01-13T01:01:10.135Z,100378.94
2023-01-13T01:03:36.891Z,100371.81
2023-01-13T01:06:09.075Z,100366.44
2023-01-13T01:08:36.100Z,100365.88
2023-01-13T01:11:04.977Z,100359.19
2023-01-13T01:13:31.816Z,100372.28
2023-01-13T01:15:58.948Z,100356.94
2023-01-13T01:18:25.566Z,100364.59
2023-01-13T01:20:51.883Z,100348.69
2023-01-13T01:23:18.214Z,100361.03
2023-01-13T01:25:45.524Z,100356.75
2023-01-13T01:28:11.991Z,100354.94
2023-01-13T01:30:39.385Z,100353.50
2023-01-13T01:33:05.751Z,100355.06
2023-01-13T01:35:32.118Z,100364.75
2023-01-13T01:37:58.518Z,100370.56
2023-01-13T01:40:26.728Z,100378.66
2023-01-13T01:42:53.414Z,100376.66
2023-01-13T01:45:22.521Z,100371.81
2023-01-13T01:47:56.570Z,100378.63
2023-01-13T01:50:23.803Z,100378.50
2023-01-13T01:52:56.574Z,100383.63
2023-01-13T01:55:29.574Z,100383.03
2023-01-13T01:58:07.810Z,100391.13
2023-01-13T02:00:34.259Z,100391.53
2023-01-13T02:03:01.300Z,100385.16
2023-01-13T02:05:27.930Z,100379.50
2023-01-13T02:07:57.711Z,100371.00
2023-01-13T02:10:27.140Z,100352.00
2023-01-13T02:12:55.213Z,100364.63
2023-01-13T02:15:28.507Z,100369.72
2023-01-13T02:18:13.790Z,100376.69
2023-01-13T02:21:07.987Z,100369.56
2023-01-13T02:23:58.536Z,100360.66
2023-01-13T02:27:02.531Z,100359.63
2023-01-13T02:29:44.327Z,100375.41
2023-01-13T02:32:20.483Z,100345.75
2023-01-13T02:35:00.056Z,100352.41
2023-01-13T02:37:31.870Z,100345.03
2023-01-13T02:40:17.559Z,100341.34
2023-01-13T02:42:50.981Z,100341.06
2023-01-13T02:45:33.706Z,100334.09
2023-01-13T02:48:02.564Z,100338.50
2023-01-13T02:50:35.127Z,100334.34
2023-01-13T02:53:07.893Z,100339.91
2023-01-13T02:55:38.196Z,100345.84
2023-01-13T02:58:08.700Z,100334.16
2023-01-13T03:00:37.958Z,100338.03
2023-01-13T03:03:04.677Z,100333.22
2023-01-13T03:05:33.207Z,100344.44
2023-01-13T03:08:20.874Z,100337.91
2023-01-13T03:10:53.208Z,100346.16
2023-01-13T03:13:42.457Z,100353.09
2023-01-13T03:16:23.452Z,100324.84
2023-01-13T03:19:00.894Z,100321.69
2023-01-13T03:21:32.030Z,100322.28
2023-01-13T03:24:16.836Z,100327.09
2023-01-13T03:27:04.308Z,100311.34
2023-01-13T03:29:36.964Z,100317.03
2023-01-13T03:32:22.120Z,100308.09
2023-01-13T03:35:18.943Z,100323.25
2023-01-13T03:38:15.756Z,100322.13
2023-01-13T03:40:48.905Z,100330.66
2023-01-13T03:43:22.012Z,100343.31
2023-01-13T03:45:55.634Z,100349.69
2023-01-13T03:48:25.636Z,100333.75
2023-01-13T03:50:55.674Z,100339.75
2023-01-13T03:53:30.659Z,100332.38
2023-01-13T03:56:15.553Z,100330.00
2023-01-13T03:58:47.586Z,100319.75
2023-01-13T04:01:24.744Z,100325.31
2023-01-13T04:04:00.218Z,100327.56
2023-01-13T04:07:06.277Z,100323.28
2023-01-13T04:09:49.450Z,100326.16
2023-01-13T04:12:24.715Z,100319.75
2023-01-13T04:14:52.487Z,100322.75
2023-01-13T04:17:19.257Z,100310.38
2023-01-13T04:19:45.683Z,100323.03
2023-01-13T04:22:12.048Z,100320.34
2023-01-13T04:24:38.373Z,100319.34
2023-01-13T04:27:04.747Z,100333.13
2023-01-13T04:29:31.163Z,100339.94
2023-01-13T04:31:57.627Z,100325.16
2023-01-13T04:34:23.972Z,100340.09
2023-01-13T04:36:50.392Z,100334.25
2023-01-13T04:39:16.780Z,100334.28
2023-01-13T04:41:43.163Z,100336.84
2023-01-13T04:44:09.518Z,100339.66
2023-01-13T04:46:36.261Z,100334.69
2023-01-13T04:49:02.753Z,100336.81
2023-01-13T04:51:29.245Z,100333.41
2023-01-13T04:53:55.618Z,100333.56
2023-01-13T04:56:22.049Z,100339.94
2023-01-13T04:58:48.372Z,100331.44
2023-01-13T05:01:14.996Z,100334.84
2023-01-13T05:03:41.381Z,100338.38
2023-01-13T05:06:07.813Z,100331.88
2023-01-13T05:08:34.176Z,100336.25
2023-01-13T05:11:01.676Z,100334.13
2023-01-13T05:13:28.137Z,100326.03
2023-01-13T05:15:54.593Z,100331.28
2023-01-13T05:18:21.839Z,100343.06
2023-01-13T05:20:49.433Z,100315.53
2023-01-13T05:23:15.873Z,100327.31
2023-01-13T05:25:44.366Z,100320.22
2023-01-13T05:28:12.444Z,100307.59
2023-01-13T05:30:41.451Z,100312.97
2023-01-13T05:33:09.088Z,100306.59
2023-01-13T05:35:38.790Z,100308.16
2023-01-13T05:38:05.249Z,100304.31
2023-01-13T05:40:31.842Z,100313.69
2023-01-13T05:43:06.958Z,100311.84
2023-01-13T05:45:33.661Z,100312.97
2023-01-13T05:48:01.086Z,100318.22
2023-01-13T05:50:27.486Z,100332.72
2023-01-13T05:52:54.155Z,100338.38
2023-01-13T05:55:20.713Z,100327.72
2023-01-13T05:57:47.518Z,100333.50
2023-01-13T06:00:16.968Z,100339.34
2023-01-13T06:02:43.638Z,100329.13
2023-01-13T06:05:13.118Z,100322.31
2023-01-13T06:07:41.774Z,100319.22
2023-01-13T06:10:09.278Z,100327.88
2023-01-13T06:12:36.852Z,100336.66
2023-01-13T06:15:03.390Z,100340.63
2023-01-13T06:17:30.028Z,100326.72
2023-01-13T06:19:56.558Z,100335.78
2023-01-13T06:22:30.858Z,100336.34
2023-01-13T06:24:57.541Z,100334.50
2023-01-13T06:27:24.776Z,100339.75
2023-01-13T06:29:52.477Z,100320.50
2023-01-13T06:32:24.568Z,100330.13
2023-01-13T06:34:56.302Z,100325.03
2023-01-13T06:37:24.321Z,100333.41
2023-01-13T06:39:54.716Z,100335.69
2023-01-13T06:42:22.140Z,100328.75
2023-01-13T06:44:49.568Z,100341.78
2023-01-13T06:47:16.765Z,100330.13
2023-01-13T06:49:43.162Z,100344.16
2023-01-13T06:52:09.556Z,100343.31
2023-01-13T06:54:36.730Z,100352.56
2023-01-13T06:57:03.338Z,100345.75
2023-01-13T06:59:29.770Z,100358.09
2023-01-13T07:01:56.946Z,100346.72
2023-01-13T07:04:26.577Z,100342.06
2023-01-13T07:06:52.894Z,100331.72
2023-01-13T07:09:19.454Z,100327.59
2023-01-13T07:11:47.325Z,100353.13
2023-01-13T07:14:13.784Z,100342.06
2023-01-13T07:16:40.194Z,100341.22
2023-01-13T07:19:06.671Z,100346.03
2023-01-13T07:21:33.017Z,100360.53
2023-01-13T07:23:59.385Z,100348.28
2023-01-13T07:26:25.875Z,100355.25
2023-01-13T07:28:52.242Z,100361.66
2023-01-13T07:31:20.571Z,100372.88
2023-01-13T07:33:48.151Z,100379.25
2023-01-13T07:36:15.265Z,100387.34
2023-01-13T07:38:41.974Z,100380.53
2023-01-13T07:41:12.907Z,100374.41
2023-01-13T07:43:39.370Z,100381.38
2023-01-13T07:46:06.570Z,100379.66
2023-01-13T07:48:34.939Z,100378.94
2023-01-13T07:51:06.531Z,100384.09
2023-01-13T07:53:33.626Z,100396.00
2023-01-13T07:56:01.054Z,100394.88
2023-01-13T07:58:28.475Z,100397.13
2023-01-13T08:00:56.011Z,100381.50
2023-01-13T08:03:23.361Z,100395.28
2023-01-13T08:05:49.826Z,100389.03
2023-01-13T08:08:16.579Z,100398.69
2023-01-13T08:10:43.100Z,100394.69
2023-01-13T08:13:17.582Z,100395.41
2023-01-13T08:15:44.907Z,100395.69
2023-01-13T08:18:12.014Z,100388.59
2023-01-13T08:20:38.513Z,100385.63
2023-01-13T08:23:07.200Z,100407.50
2023-01-13T08:25:34.319Z,100379.22
2023-01-13T08:28:00.755Z,100398.09
2023-01-13T08:30:28.282Z,100407.19
2023-01-13T08:32:54.905Z,100390.56
2023-01-13T08:35:22.049Z,100395.41
2023-01-13T08:37:49.484Z,100422.38
2023-01-13T08:40:17.321Z,100421.53
2023-01-13T08:42:43.833Z,100408.06
2023-01-13T08:45:10.863Z,100424.50
2023-01-13T08:47:37.302Z,100426.38
2023-01-13T08:50:04.717Z,100429.06
2023-01-13T08:52:31.250Z,100427.09
2023-01-13T08:54:57.865Z,100447.94
2023-01-13T08:57:24.558Z,100432.47
2023-01-13T08:59:51.040Z,100452.19
2023-01-13T09:02:21.358Z,100457.44
2023-01-13T09:04:48.858Z,100455.88
2023-01-13T09:07:15.903Z,100467.50
2023-01-13T09:09:42.475Z,100463.09
2023-01-13T09:12:12.229Z,100471.31
2023-01-13T09:14:39.411Z,100478.06
2023-01-13T09:17:06.433Z,100462.75
2023-01-13T09:19:33.209Z,100476.66
2023-01-13T09:21:59.658Z,100473.25
2023-01-13T09:24:26.572Z,100490.69
2023-01-13T09:26:53.086Z,100479.75
2023-01-13T09:29:19.830Z,100494.75
2023-01-13T09:31:46.575Z,100499.59
2023-01-13T09:34:16.647Z,100491.91
2023-01-13T09:36:43.151Z,100487.09
2023-01-13T09:39:09.531Z,100487.69
2023-01-13T09:41:42.321Z,100488.13
2023-01-13T09:44:36.082Z,100487.69
2023-01-13T09:47:09.644Z,100488.13
2023-01-13T09:49:40.269Z,100495.94
2023-01-13T09:52:12.207Z,100514.97
2023-01-13T09:54:42.822Z,100511.91
2023-01-13T09:57:12.851Z,100519.69
2023-01-13T09:59:39.936Z,100509.78
2023-01-13T10:02:12.647Z,100498.56
2023-01-13T10:04:39.298Z,100503.13
2023-01-13T10:07:14.483Z,100498.13
2023-01-13T10:09:51.696Z,100502.56
2023-01-13T10:12:24.972Z,100501.97
2023-01-13T10:14:55.186Z,100494.19
2023-01-13T10:17:31.545Z,100510.22
2023-01-13T10:20:20.967Z,100517.63
2023-01-13T10:23:19.712Z,100530.81
2023-01-13T10:26:20.429Z,100526.16
2023-01-13T10:28:54.773Z,100540.66
2023-01-13T10:31:21.918Z,100540.50
2023-01-13T10:33:49.318Z,100550.28
2023-01-13T10:36:18.567Z,100552.53
2023-01-13T10:38:47.775Z,100554.66
2023-01-13T10:41:17.157Z,100561.44
2023-01-13T10:44:01.819Z,100560.75
2023-01-13T10:46:29.556Z,100567.03
2023-01-13T10:48:58.251Z,100570.31
2023-01-13T10:51:29.110Z,100556.41
2023-01-13T10:54:12.507Z,100561.66
2023-01-13T10:56:41.762Z,100571.56
2023-01-13T10:59:19.528Z,100552.44
2023-01-13T11:02:24.955Z,100559.97
2023-01-13T11:04:55.766Z,100580.88
2023-01-13T11:07:34.381Z,100570.19
2023-01-13T11:10:07.205Z,100574.31
2023-01-13T11:12:39.316Z,100585.97
2023-01-13T11:15:13.780Z,100581.56
2023-01-13T11:17:45.934Z,100579.72
2023-01-13T11:20:17.396Z,100588.38
2023-01-13T11:22:47.942Z,100600.63
2023-01-13T11:25:26.858Z,100589.69
2023-01-13T11:28:00.671Z,100588.97
2023-01-13T11:31:05.482Z,100582.72
2023-01-13T11:33:38.047Z,100608.56
2023-01-13T11:36:17.782Z,100595.38
2023-01-13T11:38:58.557Z,100591.97
2023-01-13T11:41:47.335Z,100589.56
2023-01-13T11:44:21.132Z,100601.78
2023-01-13T11:46:52.269Z,100609.59
2023-01-13T11:49:30.903Z,100598.34
2023-01-13T11:52:15.731Z,100609.88
2023-01-13T11:55:11.829Z,100607.03
2023-01-13T11:57:43.107Z,100621.41
2023-01-13T12:00:48.762Z,100627.34
2023-01-13T12:03:40.169Z,100622.94
2023-01-13T12:06:33.118Z,100622.81
2023-01-13T12:09:07.845Z,100638.03
2023-01-13T12:11:46.163Z,100632.91
2023-01-13T12:14:35.403Z,100621.94
2023-01-13T12:17:09.052Z,100635.75
2023-01-13T12:19:38.727Z,100640.16
2023-01-13T12:22:13.829Z,100628.78
2023-01-13T12:25:08.645Z,100632.03
2023-01-13T12:27:44.866Z,100637.44
2023-01-13T12:30:27.587Z,100665.88
2023-01-13T12:33:06.911Z,100655.78
2023-01-13T12:35:45.955Z,100646.13
2023-01-13T12:38:36.587Z,100653.94
2023-01-13T12:41:16.401Z,100664.31
2023-01-13T12:43:48.079Z,100686.78
2023-01-13T12:46:20.282Z,100673.00
2023-01-13T12:48:53.068Z,100675.53
2023-01-13T12:51:28.907Z,100671.59
2023-01-13T12:53:58.824Z,100681.69
2023-01-13T12:56:41.663Z,100683.22
2023-01-13T12:59:19.879Z,100673.84
2023-01-13T13:01:48.519Z,100674.56
2023-01-13T13:04:20.489Z,100697.16
2023-01-13T13:07:07.918Z,100682.38
2023-01-13T13:09:43.626Z,100698.16
2023-01-13T13:12:28.746Z,100702.88
2023-01-13T13:14:55.246Z,100717.78
2023-01-13T13:17:30.878Z,100713.09
2023-01-13T13:19:59.408Z,100713.25
2023-01-13T13:22:28.667Z,100710.53
2023-01-13T13:24:54.951Z,100716.66
2023-01-13T13:27:46.605Z,100715.81
2023-01-13T13:30:27.380Z,100726.03
2023-01-13T13:33:20.783Z,100732.59
2023-01-13T13:36:22.956Z,100736.31
2023-01-13T13:39:16.078Z,100737.28
2023-01-13T13:41:46.839Z,100741.28
2023-01-13T13:44:21.164Z,100746.78
2023-01-13T13:46:48.733Z,100759.34
2023-01-13T13:49:21.416Z,100756.47
2023-01-13T13:52:13.393Z,100756.47
2023-01-13T13:54:42.656Z,100768.41
2023-01-13T13:57:19.124Z,100784.09
2023-01-13T13:59:45.359Z,100785.22
2023-01-13T14:02:19.660Z,100779.53
2023-01-13T14:04:46.033Z,100797.13
2023-01-13T14:07:20.943Z,100795.31
2023-01-13T14:09:50.598Z,100803.97
2023-01-13T14:12:24.627Z,100801.56
2023-01-13T14:14:51.984Z,100813.53
2023-01-13T14:17:38.460Z,100813.66
2023-01-13T14:20:16.974Z,100817.94
2023-01-13T14:22:52.394Z,100831.16
2023-01-13T14:25:30.224Z,100838.38
2023-01-13T14:27:58.730Z,100840.13
2023-01-13T14:30:27.324Z,100845.66
2023-01-13T14:32:54.638Z,100841.97
2023-01-13T14:35:23.241Z,100848.47
2023-01-13T14:37:49.764Z,100848.63
2023-01-13T14:40:34.609Z,100847.66
2023-01-13T14:43:11.766Z,100850.06
2023-01-13T14:45:39.503Z,100854.31
2023-01-13T14:48:09.177Z,100869.41
2023-01-13T14:50:37.047Z,100856.59
2023-01-13T14:53:05.687Z,100865.56
2023-01-13T14:55:36.575Z,100863.88
2023-01-13T14:58:21.260Z,100866.69
2023-01-13T15:00:50.358Z,100871.97
2023-01-13T15:03:19.177Z,100897.81
2023-01-13T15:05:50.899Z,100892.69
2023-01-13T15:08:21.661Z,100905.50
2023-01-13T15:10:51.052Z,100910.03
2023-01-13T15:13:53.129Z,100916.00
2023-01-13T15:16:28.202Z,100914.31
2023-01-13T15:18:56.852Z,100931.78
2023-01-13T15:21:23.756Z,100935.47
2023-01-13T15:23:50.074Z,100930.91
2023-01-13T15:26:27.657Z,100940.88
2023-01-13T15:28:56.917Z,100944.84
2023-01-13T15:31:24.632Z,100948.66
2023-01-13T15:33:51.171Z,100968.56
2023-01-13T15:36:24.577Z,100979.31
2023-01-13T15:38:51.920Z,100972.66
2023-01-13T15:41:18.429Z,100971.91
2023-01-13T15:43:44.721Z,100982.25
2023-01-13T15:46:19.647Z,100994.94
2023-01-13T15:48:46.485Z,100994.66
2023-01-13T15:51:19.456Z,100997.88
2023-01-13T15:53:45.826Z,101003.41
2023-01-13T15:56:19.945Z,101007.97
2023-01-13T15:58:46.390Z,101011.91
2023-01-13T16:01:12.843Z,101018.69
2023-01-13T16:03:40.489Z,101006.78
2023-01-13T16:06:18.168Z,101008.81
2023-01-13T16:08:44.594Z,101023.38
2023-01-13T16:11:11.563Z,101028.41
2023-01-13T16:13:38.016Z,101023.81
2023-01-13T16:16:17.715Z,101026.47
2023-01-13T16:18:44.271Z,101034.63
2023-01-13T16:21:12.415Z,101045.78
2023-01-13T16:23:39.147Z,101057.56
2023-01-13T16:26:06.964Z,101056.13
2023-01-13T16:28:33.518Z,101071.47
2023-01-13T16:30:59.898Z,101065.94
2023-01-13T16:33:26.399Z,101065.13
2023-01-13T16:36:10.843Z,101063.72
2023-01-13T16:38:38.866Z,101067.09
2023-01-13T16:41:05.660Z,101080.13
2023-01-13T16:43:34.048Z,101072.78
2023-01-13T16:46:00.521Z,101057.72
2023-01-13T16:48:28.232Z,101079.25
2023-01-13T16:50:54.822Z,101083.44
2023-01-13T16:53:21.304Z,101092.75
2023-01-13T16:55:47.659Z,101086.28
2023-01-13T16:58:20.057Z,101110.44
2023-01-13T17:00:49.018Z,101108.69
2023-01-13T17:03:17.195Z,101115.34
2023-01-13T17:05:45.508Z,101112.81
2023-01-13T17:08:17.135Z,101128.69
2023-01-13T17:10:47.532Z,101114.13
2023-01-13T17:13:16.729Z,101108.72
2023-01-13T17:15:46.336Z,101117.78
2023-01-13T17:18:12.688Z,101126.50
2023-01-13T17:20:39.104Z,101138.97
2023-01-13T17:23:05.656Z,101148.88
2023-01-13T17:25:32.002Z,101148.88
2023-01-13T17:28:01.118Z,101153.84
2023-01-13T17:30:28.617Z,101163.44
2023-01-13T17:32:55.276Z,101162.94
2023-01-13T17:35:21.849Z,101180.19
2023-01-13T17:37:48.168Z,101168.13
2023-01-13T17:40:19.431Z,101185.84
2023-01-13T17:42:45.762Z,101167.09
2023-01-13T17:45:12.112Z,101155.44
2023-01-13T17:47:38.777Z,101170.09
2023-01-13T17:50:06.821Z,101185.28
2023-01-13T17:52:34.497Z,101182.66
2023-01-13T17:55:00.900Z,101172.88
2023-01-13T17:57:27.293Z,101186.41
2023-01-13T17:59:53.629Z,101189.09
2023-01-13T18:02:20.105Z,101185.09
2023-01-13T18:04:46.629Z,101186.84
2023-01-13T18:07:13.013Z,101175.72
2023-01-13T18:09:40.850Z,101185.28
2023-01-13T18:12:07.281Z,101193.53
2023-01-13T18:14:34.322Z,101194.78
2023-01-13T18:17:00.719Z,101185.72
2023-01-13T18:19:27.076Z,101181.31
2023-01-13T18:21:54.473Z,101195.03
2023-01-13T18:24:20.836Z,101188.91
2023-01-13T18:26:48.452Z,101197.00
2023-01-13T18:29:15.881Z,101187.25
2023-01-13T18:31:43.655Z,101194.63
2023-01-13T18:34:10.682Z,101194.38
2023-01-13T18:36:38.000Z,101212.53
2023-01-13T18:39:04.443Z,101225.28
2023-01-13T18:41:31.243Z,101225.53
2023-01-13T18:43:57.813Z,101227.09
2023-01-13T18:46:25.289Z,101211.78
2023-01-13T18:48:51.743Z,101219.56
2023-01-13T18:51:18.185Z,101214.84
2023-01-13T18:53:44.819Z,101228.44
2023-01-13T18:56:12.632Z,101231.66
2023-01-13T18:58:40.055Z,101234.34
2023-01-13T19:01:06.552Z,101232.72
2023-01-13T19:03:33.000Z,101238.97
2023-01-13T19:06:04.313Z,101238.97
2023-01-13T19:08:30.611Z,101249.50
2023-01-13T19:10:56.952Z,101244.00
2023-01-13T19:13:23.232Z,101247.94
2023-01-13T19:15:49.585Z,101252.56
2023-01-13T19:18:15.938Z,101261.78
2023-01-13T19:20:42.280Z,101276.06
2023-01-13T19:23:08.725Z,101269.47
2023-01-13T19:25:36.427Z,101277.22
2023-01-13T19:28:02.891Z,101274.03
2023-01-13T19:30:29.228Z,101282.03
2023-01-13T19:32:56.351Z,101282.97
2023-01-13T19:35:22.703Z,101278.09
2023-01-13T19:37:49.036Z,101285.22
2023-01-13T19:40:15.628Z,101285.44
2023-01-13T19:42:45.028Z,101289.13
2023-01-13T19:45:15.898Z,101277.66
2023-01-13T19:47:42.340Z,101283.63
2023-01-13T19:50:09.557Z,101305.69
2023-01-13T19:52:35.858Z,101285.84
2023-01-13T19:55:02.174Z,101314.63
2023-01-13T19:57:28.826Z,101312.81
2023-01-13T19:59:56.554Z,101295.78
2023-01-13T20:02:24.097Z,101298.06
2023-01-13T20:04:50.467Z,101311.69
2023-01-13T20:07:16.805Z,101318.19
2023-01-13T20:09:43.161Z,101323.34
2023-01-13T20:12:10.196Z,101330.69
2023-01-13T20:14:36.544Z,101333.25
2023-01-13T20:17:03.038Z,101338.50
2023-01-13T20:19:29.919Z,101334.69
2023-01-13T20:21:56.298Z,101333.94
2023-01-13T20:24:22.621Z,101329.91
2023-01-13T20:26:48.948Z,101332.09
2023-01-13T20:29:15.260Z,101338.69
2023-01-13T20:31:41.611Z,101346.78
2023-01-13T20:34:08.560Z,101335.72
2023-01-13T20:36:35.847Z,101334.03
2023-01-13T20:39:03.959Z,101342.78
2023-01-13T20:41:31.865Z,101352.06
2023-01-13T20:43:58.177Z,101359.97
2023-01-13T20:46:24.582Z,101366.63
2023-01-13T20:48:50.946Z,101375.13
2023-01-13T20:51:17.282Z,101367.38
2023-01-13T20:53:43.654Z,101377.94
2023-01-13T20:56:10.313Z,101374.59
2023-01-13T20:58:39.467Z,101387.56
2023-01-13T21:01:05.989Z,101380.63
2023-01-13T21:03:32.624Z,101390.63
2023-01-13T21:05:59.143Z,101390.50
2023-01-13T21:08:25.615Z,101396.41
2023-01-13T21:10:58.439Z,101402.22
2023-01-13T21:13:24.756Z,101398.44
2023-01-13T21:15:51.062Z,101395.28
2023-01-13T21:18:17.345Z,101415.47
2023-01-13T21:20:43.742Z,101410.28
2023-01-13T21:23:10.136Z,101409.75
2023-01-13T21:25:36.494Z,101405.50
2023-01-13T21:28:02.868Z,101419.53
2023-01-13T21:30:29.184Z,101415.22
2023-01-13T21:32:55.510Z,101421.91
2023-01-13T21:35:22.265Z,101418.63
2023-01-13T21:37:48.628Z,101428.78
2023-01-13T21:40:15.040Z,101435.28
2023-01-13T21:42:41.412Z,101440.03
2023-01-13T21:45:10.158Z,101432.94
2023-01-13T21:47:36.674Z,101431.19
2023-01-13T21:50:06.677Z,101428.84
2023-01-13T21:52:33.136Z,101438.56
2023-01-13T21:54:59.513Z,101441.94
2023-01-13T21:57:27.371Z,101452.59
2023-01-13T21:59:54.172Z,101457.84
2023-01-13T22:02:24.495Z,101458.13
2023-01-13T22:04:51.404Z,101465.47
2023-01-13T22:07:18.799Z,101454.56
2023-01-13T22:09:45.157Z,101462.88
2023-01-13T22:12:11.477Z,101466.75
2023-01-13T22:14:37.951Z,101476.69
2023-01-13T22:17:04.452Z,101480.56
2023-01-13T22:19:30.764Z,101479.81
2023-01-13T22:21:57.182Z,101479.56
2023-01-13T22:24:23.481Z,101482.59
2023-01-13T22:26:49.833Z,101487.88
2023-01-13T22:29:16.297Z,101500.47
2023-01-13T22:31:42.736Z,101497.22
2023-01-13T22:34:12.030Z,101502.50
2023-01-13T22:36:38.396Z,101486.53
2023-01-13T22:39:05.953Z,101485.88
2023-01-13T22:41:32.328Z,101489.84
2023-01-13T22:43:58.635Z,101489.41
2023-01-13T22:46:24.947Z,101485.88
2023-01-13T22:48:51.248Z,101479.47
2023-01-13T22:51:17.570Z,101486.38
2023-01-13T22:53:44.355Z,101488.97
2023-01-13T22:56:16.917Z,101491.88
2023-01-13T22:58:44.089Z,101488.97
2023-01-13T23:01:17.502Z,101499.88
2023-01-13T23:03:44.263Z,101495.78
2023-01-13T23:06:10.906Z,101494.81
2023-01-13T23:08:37.704Z,101498.94
2023-01-13T23:11:09.654Z,101505.91
2023-01-13T23:13:36.890Z,101505.72
2023-01-13T23:16:05.495Z,101498.47
2023-01-13T23:18:32.596Z,101508.53
2023-01-13T23:21:12.953Z,101503.97
2023-01-13T23:23:39.999Z,101494.72
2023-01-13T23:26:07.362Z,101498.72
2023-01-13T23:28:34.897Z,101480.72
2023-01-13T23:31:09.713Z,101481.75
2023-01-13T23:33:36.465Z,101477.22
2023-01-13T23:36:05.671Z,101482.72
2023-01-13T23:38:32.513Z,101473.22
2023-01-13T23:40:59.613Z,101467.63
2023-01-13T23:43:26.462Z,101467.41
2023-01-13T23:46:00.371Z,101467.50
2023-01-13T23:48:26.682Z,101478.94
2023-01-13T23:50:57.371Z,101475.47
2023-01-13T23:53:23.723Z,101482.81
2023-01-13T23:55:56.788Z,101483.69
2023-01-13T23:58:23.096Z,101474.13
